• Join FlightAware (Why Join?)
  • Login
  • US Flag 
09:49AM EDT


 

Airport Tracker/Info


-or-


 

Live Flight TrackerFlight Track Log ✈ DAL1979 ✈ 05-May-2013 ✈ KMCO - KMSP

Flight Track Log - Related Links

Times and Time Zones

All times are in EDT time to prevent confusion due to time zone crossing. See the DAL1979 flight status page for this flight to view local times or setup timezone preferences in your user account.

Time Position Orientation Groundspeed Altitude Reporting Facility
EDT Latitude Longitude Course Direction KTS MPH feet Rate Location/Type
04:01PM 28.5110 -81.3150 270° West 230 265 3,500  Level FlightAware
04:02PM 28.4167 -81.7063 270° West  Level FlightAware Approximate
04:03PM 28.4167 -81.8418 270° West  Level FlightAware Approximate
04:04PM 28.4167 -81.9772 270° West  Level FlightAware Approximate
04:04PM 28.5450 -81.5440 280° West 260 299 9,900  Level FlightAware
04:08PM 28.4590 -81.9230 256° West 364 419 16,000 1,800 Climbing FlightAware
04:09PM 28.4620 -82.0260 272° West 381 438 18,400 2,580 Climbing FlightAware
04:09PM 28.4660 -82.1190 273° West 384 442 19,900 1,920 Climbing FlightAware
04:10PM 28.4690 -82.1990 272° West 387 445 21,200 1,680 Climbing FlightAware
04:11PM 28.4720 -82.2870 272° West 396 456 22,300 1,320 Climbing FlightAware
04:12PM 28.4870 -82.3670 282° West 412 474 23,100 1,260 Climbing FlightAware
04:12PM 28.5050 -82.3990 303° West 423 487 23,500 1,080 Climbing FlightAware
04:13PM 28.5870 -82.4710 322° Northwest 431 496 24,400 1,440 Climbing FlightAware
04:13PM 28.6560 -82.5240 326° Northwest 433 498 25,800 1,680 Climbing FlightAware
04:14PM 28.7340 -82.5860 325° Northwest 438 504 26,800 1,200 Climbing FlightAware
04:15PM 28.7930 -82.6340 325° Northwest 449 517 27,400 960 Climbing FlightAware
04:16PM 28.8800 -82.7040 325° Northwest 457 526 28,200 720 Climbing FlightAware
04:16PM 28.9650 -82.7740 324° Northwest 458 527 28,700 300 Climbing FlightAware
04:17PM 29.0230 -82.8220 324° Northwest 458 527 28,700  Level FlightAware
04:18PM 29.0820 -82.8710 324° Northwest 458 527 28,700  Level FlightAware
04:18PM 29.1400 -82.9190 324° Northwest 458 527 28,700  Level FlightAware
04:19PM 29.1980 -82.9670 324° Northwest 458 527 28,700  Level FlightAware
04:20PM 29.2710 -83.0280 324° Northwest 458 527 28,700 420 Level FlightAware
04:22PM 29.5350 -83.2350 326° Northwest 450 518 30,000 480 Climbing FlightAware
04:22PM 29.5870 -83.2780 324° Northwest 456 525 30,000  Level FlightAware
04:23PM 29.6810 -83.3580 324° Northwest 457 526 30,000  Level FlightAware
04:24PM 29.7500 -83.4160 324° Northwest 457 526 30,000  Level FlightAware
04:25PM 29.8150 -83.4700 324° Northwest 458 527 30,000  Level FlightAware
04:25PM 29.8810 -83.5280 323° Northwest 458 527 30,000  Level FlightAware
04:26PM 29.9390 -83.5780 323° Northwest 458 527 30,000  Level FlightAware
04:27PM 29.9960 -83.6280 323° Northwest 458 527 30,000  Level FlightAware
04:27PM 30.0540 -83.6780 323° Northwest 458 527 30,000  Level FlightAware
04:28PM 30.1110 -83.7280 323° Northwest 458 527 30,000  Level FlightAware
04:29PM 30.2820 -83.8230 334° Northwest 466 536 30,000  Level FlightAware
04:30PM 30.3690 -83.8640 338° Northwest 479 551 30,000  Level FlightAware
04:31PM 30.4990 -83.8940 349° North 480 552 30,000  Level FlightAware
04:31PM 30.5750 -83.9120 348° North 478 550 30,000  Level FlightAware
04:32PM 30.6540 -83.9380 344° North 474 545 30,000  Level FlightAware
04:33PM 30.7530 -83.9940 334° Northwest 459 528 30,000  Level FlightAware
04:34PM 30.8520 -84.0570 331° Northwest 457 526 30,000  Level FlightAware
04:34PM 30.9270 -84.1060 331° Northwest 457 526 30,000  Level FlightAware
04:35PM 30.9900 -84.1470 331° Northwest 457 526 30,000  Level FlightAware
04:36PM 31.0530 -84.1870 331° Northwest 457 526 30,000  Level FlightAware
04:36PM 31.1160 -84.2280 331° Northwest 457 526 30,000  Level FlightAware
04:37PM 31.1950 -84.2790 331° Northwest 457 526 30,000  Level FlightAware
04:38PM 31.2570 -84.3200 331° Northwest 457 526 30,000  Level FlightAware
04:39PM 31.3200 -84.3600 332° Northwest 457 526 30,000  Level FlightAware
04:39PM 31.3830 -84.4010 331° Northwest 457 526 30,000  Level FlightAware
04:40PM 31.4460 -84.4420 331° Northwest 457 526 30,000  Level FlightAware
04:41PM 31.5250 -84.4930 331° Northwest 457 526 30,000  Level FlightAware
04:41PM 31.5880 -84.5340 331° Northwest 457 526 30,000  Level FlightAware
04:42PM 31.6500 -84.5750 331° Northwest 457 526 30,000  Level FlightAware
04:43PM 31.7130 -84.6160 331° Northwest 457 526 30,000  Level FlightAware
04:43PM 31.7760 -84.6570 331° Northwest 457 526 30,000 2,640 Level FlightAware
04:44PM 32.0283 -84.7886 331° Northwest 462 532 33,400 2,460 Climbing Atlanta Center
04:45PM 32.1406 -84.8606 332° Northwest 457 526 34,000 300 Climbing Atlanta Center
04:46PM 32.2547 -84.9303 333° Northwest 457 526 34,000  Level Atlanta Center
04:47PM 32.3608 -84.9953 333° Northwest 446 513 34,000  Level Atlanta Center
04:48PM 32.4792 -85.0681 333° Northwest 454 522 34,000  Level Atlanta Center
04:49PM 32.5872 -85.1333 333° Northwest 455 524 34,000  Level Atlanta Center
04:50PM 32.7053 -85.2089 332° Northwest 455 524 34,000  Level Atlanta Center
04:51PM 32.8153 -85.2772 332° Northwest 455 524 34,000  Level Atlanta Center
04:52PM 32.9419 -85.3556 333° Northwest 455 524 34,000  Level Atlanta Center
04:53PM 33.0331 -85.4142 332° Northwest 460 529 34,000  Level Atlanta Center
04:54PM 33.1697 -85.5031 331° Northwest 455 524 34,000  Level Atlanta Center
04:55PM 33.2858 -85.5769 332° Northwest 455 524 34,000  Level Atlanta Center
04:56PM 33.3914 -85.6486 330° Northwest 467 537 34,000  Level Atlanta Center
04:57PM 33.5197 -85.7283 333° Northwest 472 543 34,000  Level Atlanta Center
04:58PM 33.6169 -85.7900 332° Northwest 472 543 34,000  Level Atlanta Center
04:59PM 33.7453 -85.8675 333° Northwest 472 543 34,000  Level Atlanta Center
05:00PM 33.8608 -85.9450 331° Northwest 472 543 34,000  Level Atlanta Center
05:01PM 33.9828 -86.0228 332° Northwest 472 543 34,000  Level Atlanta Center
05:03PM 34.1299 -86.1379 327° Northwest  Level FlightAware Approximate
05:09PM 34.9016 -86.6363 327° Northwest 477 549 34,000  Level FlightAware ADS-B
05:09PM 34.9738 -86.6845 331° Northwest 477 549 34,000  Level FlightAware ADS-B
05:10PM 35.0387 -86.7281 331° Northwest 476 548 34,000  Level FlightAware ADS-B
05:10PM 35.1000 -86.7693 331° Northwest 475 547 34,000  Level FlightAware ADS-B
05:11PM 35.1617 -86.8107 331° Northwest 474 545 34,000  Level FlightAware ADS-B
05:11PM 35.2213 -86.8511 331° Northwest 473 544 34,000  Level FlightAware ADS-B
05:12PM 35.2953 -86.9010 331° Northwest 474 545 34,000  Level FlightAware ADS-B
05:13PM 35.4040 -86.9750 331° Northwest 473 544 34,000  Level FlightAware
05:14PM 35.4930 -87.0350 331° Northwest 473 544 34,000  Level FlightAware
05:15PM 35.5710 -87.0880 331° Northwest 473 544 34,000  Level FlightAware
05:15PM 35.6460 -87.1390 331° Northwest 473 544 34,000  Level FlightAware
05:16PM 35.7290 -87.1960 331° Northwest 472 543 34,000  Level FlightAware
05:17PM 35.8080 -87.2500 331° Northwest 471 542 34,000  Level FlightAware
05:17PM 35.8950 -87.3090 331° Northwest 470 541 34,000  Level FlightAware
05:18PM 35.9720 -87.3620 331° Northwest 471 542 34,000  Level FlightAware
05:19PM 36.0560 -87.4200 331° Northwest 471 542 34,000  Level FlightAware
05:19PM 36.1310 -87.4720 331° Northwest 471 542 34,000  Level FlightAware
05:20PM 36.2200 -87.5330 331° Northwest 470 541 34,000  Level FlightAware
05:21PM 36.2970 -87.5860 331° Northwest 470 541 34,000  Level FlightAware
05:22PM 36.3710 -87.6380 331° Northwest 470 541 34,000  Level FlightAware
05:22PM 36.4370 -87.6840 331° Northwest 471 542 34,000  Level FlightAware
05:23PM 36.5290 -87.7500 330° Northwest 471 542 34,000  Level FlightAware
05:24PM 36.5930 -87.7960 330° Northwest 471 542 34,000  Level FlightAware
05:24PM 36.6960 -87.8650 332° Northwest 476 548 34,000  Level FlightAware
05:25PM 36.7610 -87.9110 330° Northwest 476 548 34,000  Level FlightAware
05:26PM 36.8260 -87.9580 330° Northwest 476 548 34,000  Level FlightAware
05:26PM 36.9260 -88.0260 331° Northwest 484 557 34,000  Level FlightAware
05:27PM 37.0010 -88.0800 330° Northwest 484 557 34,000  Level FlightAware
05:28PM 37.0980 -88.1470 331° Northwest 484 557 34,000  Level FlightAware
05:29PM 37.1710 -88.2000 330° Northwest 484 557 34,000  Level FlightAware
05:29PM 37.2630 -88.2640 331° Northwest 481 554 34,000  Level FlightAware
05:30PM 37.3470 -88.3240 330° Northwest 478 550 34,000  Level FlightAware
05:31PM 37.4320 -88.3850 330° Northwest 475 547 34,000  Level FlightAware
05:31PM 37.5080 -88.4390 331° Northwest 472 543 34,000  Level FlightAware
05:32PM 37.5850 -88.4940 330° Northwest 469 540 34,000  Level FlightAware
05:33PM 37.6670 -88.5530 330° Northwest 468 539 34,000  Level FlightAware
05:33PM 37.7440 -88.6090 330° Northwest 467 537 34,000  Level FlightAware
05:34PM 37.8300 -88.6700 331° Northwest 468 539 34,000  Level FlightAware
05:35PM 37.9060 -88.7250 330° Northwest 471 542 34,000  Level FlightAware
05:36PM 37.9920 -88.7880 330° Northwest 473 544 34,000  Level FlightAware
05:36PM 38.0690 -88.8440 330° Northwest 475 547 34,000  Level FlightAware
05:37PM 38.1640 -88.9130 330° Northwest 476 548 34,000  Level FlightAware
05:38PM 38.2610 -88.9830 330° Northwest 487 560 34,000  Level FlightAware
05:39PM 38.3330 -89.0360 330° Northwest 488 562 34,000  Level FlightAware
05:39PM 38.4090 -89.0930 330° Northwest 489 563 34,000  Level FlightAware
05:40PM 38.5180 -89.1740 330° Northwest 491 565 34,000  Level FlightAware
05:41PM 38.5990 -89.2320 331° Northwest 492 566 34,000  Level FlightAware
05:42PM 38.6790 -89.2930 329° Northwest 492 566 34,000  Level FlightAware
05:42PM 38.7760 -89.3650 330° Northwest 495 570 34,000  Level FlightAware
05:43PM 38.8430 -89.4160 329° Northwest 495 570 34,000  Level FlightAware
05:44PM 38.9460 -89.4900 331° Northwest 501 577 34,000  Level FlightAware
05:44PM 39.0250 -89.5500 329° Northwest 501 577 34,000 480 Level FlightAware
05:45PM 39.1010 -89.6070 330° Northwest 501 577 34,600 480 Climbing FlightAware
05:46PM 39.1900 -89.6750 329° Northwest 502 578 34,700 780 Climbing FlightAware
05:47PM 39.2770 -89.7400 330° Northwest 504 580 35,800 840 Climbing FlightAware
05:47PM 39.3450 -89.7930 329° Northwest 504 580 35,800 120 Level FlightAware
05:48PM 39.4510 -89.8720 330° Northwest 504 580 36,000 120 Climbing FlightAware
05:49PM 39.5240 -89.9280 329° Northwest 505 581 36,000  Level FlightAware
05:49PM 39.6090 -89.9930 330° Northwest 506 582 36,000  Level FlightAware
05:50PM 39.6930 -90.0580 329° Northwest 506 582 36,000  Level FlightAware
05:51PM 39.7750 -90.1200 330° Northwest 508 585 36,000  Level FlightAware
05:52PM 39.8970 -90.2150 329° Northwest 508 585 36,000  Level FlightAware
05:52PM 39.9870 -90.2850 329° Northwest 508 585 36,000  Level FlightAware
05:53PM 40.0700 -90.3490 329° Northwest 505 581 36,000  Level FlightAware
05:54PM 40.1550 -90.4160 329° Northwest 504 580 36,000  Level FlightAware
05:54PM 40.2230 -90.4690 329° Northwest 503 579 36,000  Level FlightAware
05:55PM 40.3230 -90.5470 329° Northwest 500 575 36,000  Level FlightAware
05:56PM 40.4080 -90.6150 329° Northwest 492 566 36,000  Level FlightAware
05:57PM 40.4820 -90.6730 329° Northwest 487 560 36,000  Level FlightAware
05:57PM 40.5650 -90.7390 329° Northwest 470 541 36,000  Level FlightAware
05:58PM 40.6690 -90.8220 329° Northwest 456 525 36,000  Level FlightAware
05:59PM 40.7500 -90.8860 329° Northwest 452 520 36,000  Level FlightAware
06:00PM 40.8210 -90.9440 328° Northwest 461 531 36,000  Level FlightAware
06:00PM 40.8970 -91.0050 329° Northwest 460 529 36,000 -660 Level FlightAware
06:01PM 40.9760 -91.0690 329° Northwest 466 536 35,100 -720 Descending FlightAware
06:02PM 41.0410 -91.1230 328° Northwest 468 539 35,000 -120 Descending FlightAware
06:02PM 41.1370 -91.2000 329° Northwest 482 555 35,000  Level FlightAware
06:03PM 41.2410 -91.2850 328° Northwest 462 532 35,000  Level FlightAware
06:04PM 41.3100 -91.3410 329° Northwest 456 525 35,000  Level FlightAware
06:05PM 41.3790 -91.3980 328° Northwest 451 519 35,000  Level FlightAware
06:05PM 41.4490 -91.4550 329° Northwest 439 505 35,000  Level FlightAware
06:06PM 41.5260 -91.5200 328° Northwest 438 504 35,000 -720 Level FlightAware
06:07PM 41.5910 -91.5730 329° Northwest 458 527 34,100 -840 Descending FlightAware
06:07PM 41.6670 -91.6370 328° Northwest 471 542 34,000 -120 Descending FlightAware
06:08PM 41.7640 -91.7180 328° Northwest 456 525 34,000  Level FlightAware
06:09PM 41.8380 -91.7790 328° Northwest 458 527 34,000  Level FlightAware
06:10PM 41.9080 -91.8380 328° Northwest 455 524 34,000  Level FlightAware
06:10PM 41.9910 -91.9090 328° Northwest 453 521 34,000  Level FlightAware
06:11PM 42.0600 -91.9670 328° Northwest 456 525 34,000  Level FlightAware
06:12PM 42.1420 -92.0370 328° Northwest 459 528 34,000  Level FlightAware
06:12PM 42.2160 -92.1000 328° Northwest 461 531 34,000  Level FlightAware
06:14PM 42.3440 -92.2100 328° Northwest 464 534 34,000  Level FlightAware
06:14PM 42.4160 -92.2710 328° Northwest 464 534 34,000  Level FlightAware
06:15PM 42.4990 -92.3430 327° Northwest 463 533 34,000  Level FlightAware
06:16PM 42.5660 -92.4050 326° Northwest 463 533 34,000  Level FlightAware
06:16PM 42.6400 -92.4720 326° Northwest 462 532 34,000  Level FlightAware
06:17PM 42.7150 -92.5380 327° Northwest 461 531 34,000  Level FlightAware
06:18PM 42.8020 -92.6190 326° Northwest 459 528 34,000  Level FlightAware
06:19PM 42.8720 -92.6690 332° Northwest 458 527 34,000 -420 Level FlightAware
06:19PM 42.9590 -92.7050 343° North 459 528 33,500 -1,920 Descending FlightAware
06:20PM 43.0480 -92.7410 344° North 468 539 31,300 -2,940 Descending FlightAware
06:21PM 43.1330 -92.7750 344° North 473 544 29,400 -2,580 Descending FlightAware
06:21PM 43.2280 -92.8130 344° North 462 532 27,700 -2,280 Descending FlightAware
06:22PM 43.3090 -92.8460 343° North 453 521 26,200 -2,280 Descending FlightAware
06:23PM 43.3880 -92.8780 344° North 445 512 24,700 -2,280 Descending FlightAware
06:23PM 43.4740 -92.9130 344° North 436 502 23,000 -2,220 Descending FlightAware
06:24PM 43.5510 -92.9440 344° North 428 493 21,600 -2,220 Descending FlightAware
06:25PM 43.6390 -92.9800 344° North 418 481 19,900 -2,340 Descending FlightAware
06:26PM 43.7130 -93.0110 343° North 414 476 18,300 -2,280 Descending FlightAware
06:26PM 43.7860 -93.0400 344° North 404 465 16,900 -2,100 Descending FlightAware
06:27PM 43.8610 -93.0710 343° North 397 457 15,400 -2,160 Descending FlightAware
06:28PM 43.9330 -93.1010 343° North 389 448 13,900 -2,220 Descending FlightAware
06:28PM 44.0110 -93.1340 343° North 380 437 12,300 -2,100 Descending FlightAware
06:29PM 44.0790 -93.1620 344° North 371 427 11,000 -1,440 Descending FlightAware
06:30PM 44.1430 -93.1890 343° North 341 392 10,400 -780 Descending FlightAware
06:30PM 44.1830 -93.2050 344° North 320 368 10,100 -540 Descending FlightAware
06:31PM 44.2280 -93.2190 347° North 297 342 9,900 -180 Descending FlightAware
06:31PM 44.2820 -93.2170 North 289 333 9,900  Level FlightAware
06:32PM 44.3010 -93.2150 North 290 334 9,900 -300 Level FlightAware
06:32PM 44.3360 -93.2110 North 285 328 9,700 -1,200 Descending FlightAware
06:33PM 44.3760 -93.2070 North 284 327 8,800 -1,500 Descending FlightAware
06:33PM 44.4150 -93.2040 North 281 323 8,200 -1,200 Descending FlightAware
06:33PM 44.4450 -93.2010 North 278 320 7,700 -1,200 Descending FlightAware
06:34PM 44.4640 -93.1990 North 276 318 7,400 -1,080 Descending FlightAware
06:34PM 44.5040 -93.1960 North 279 321 6,900 -720 Descending FlightAware
06:34PM 44.5230 -93.1940 North 282 325 6,900 -600 Level FlightAware
06:35PM 44.5560 -93.1910 North 278 320 6,500 -1,200 Descending FlightAware
06:35PM 44.5750 -93.1890 North 279 321 6,100 -1,500 Descending FlightAware
06:36PM 44.6130 -93.1860 North 278 320 5,400 -1,380 Descending FlightAware
06:36PM 44.6310 -93.1840 North 277 319 5,100 -1,380 Descending FlightAware
06:36PM 44.6640 -93.1890 354° North 264 304 4,500 -1,440 Descending FlightAware
06:37PM 44.6990 -93.1990 349° North 247 284 3,800 -1,440 Descending FlightAware
06:37PM 44.7270 -93.2070 349° North 228 262 3,200 -1,200 Descending FlightAware
06:38PM 44.7570 -93.2140 351° North 200 230 2,700 -1,020 Descending FlightAware
06:38PM 44.7780 -93.2200 349° North 179 206 2,300 -900 Descending FlightAware
06:38PM 44.7880 -93.2230 348° North 162 186 2,100 -960 Descending FlightAware
06:39PM 44.8110 -93.2290 350° North 149 171 1,600 -900 Descending FlightAware
06:39PM 44.8270 -93.2330 350° North 149 171 1,300 -780 Descending FlightAware
06:40PM 44.8480 -93.2390 349° North 146 168 900 -840 Descending FlightAware